sensor_id;sensor_type;location;lat;lon;timestamp;P1;durP1;ratioP1;P2;durP2;ratioP2
80225;SDS011;69538;42.000;21.452;2023-07-02T00:01:52;18.77;;;8.95;;
80225;SDS011;69538;42.000;21.452;2023-07-02T00:04:18;22.75;;;9.70;;
80225;SDS011;69538;42.000;21.452;2023-07-02T00:06:46;20.15;;;9.60;;
80225;SDS011;69538;42.000;21.452;2023-07-02T00:09:13;18.77;;;9.57;;
80225;SDS011;69538;42.000;21.452;2023-07-02T00:11:40;20.77;;;10.27;;
80225;SDS011;69538;42.000;21.452;2023-07-02T00:14:07;18.67;;;8.93;;
80225;SDS011;69538;42.000;21.452;2023-07-02T00:16:34;21.98;;;10.20;;
80225;SDS011;69538;42.000;21.452;2023-07-02T00:19:01;15.00;;;8.43;;
80225;SDS011;69538;42.000;21.452;2023-07-02T00:21:27;19.17;;;9.00;;
80225;SDS011;69538;42.000;21.452;2023-07-02T00:23:56;21.15;;;10.27;;
80225;SDS011;69538;42.000;21.452;2023-07-02T00:26:23;16.40;;;8.85;;
80225;SDS011;69538;42.000;21.452;2023-07-02T00:28:50;20.60;;;9.88;;
80225;SDS011;69538;42.000;21.452;2023-07-02T00:31:16;20.98;;;10.00;;
80225;SDS011;69538;42.000;21.452;2023-07-02T00:33:42;17.02;;;8.23;;
80225;SDS011;69538;42.000;21.452;2023-07-02T00:36:08;21.08;;;9.73;;
80225;SDS011;69538;42.000;21.452;2023-07-02T00:38:40;21.73;;;9.50;;
80225;SDS011;69538;42.000;21.452;2023-07-02T00:41:07;19.02;;;8.93;;
80225;SDS011;69538;42.000;21.452;2023-07-02T00:43:33;22.15;;;9.88;;
80225;SDS011;69538;42.000;21.452;2023-07-02T00:45:59;16.73;;;9.65;;
80225;SDS011;69538;42.000;21.452;2023-07-02T00:48:25;19.20;;;9.40;;
80225;SDS011;69538;42.000;21.452;2023-07-02T00:50:52;19.00;;;9.77;;
80225;SDS011;69538;42.000;21.452;2023-07-02T00:53:18;17.52;;;8.95;;
80225;SDS011;69538;42.000;21.452;2023-07-02T00:55:44;21.42;;;9.75;;
80225;SDS011;69538;42.000;21.452;2023-07-02T00:58:10;21.67;;;8.82;;
80225;SDS011;69538;42.000;21.452;2023-07-02T01:00:40;18.55;;;9.30;;
80225;SDS011;69538;42.000;21.452;2023-07-02T01:03:07;20.83;;;9.48;;
80225;SDS011;69538;42.000;21.452;2023-07-02T01:05:33;21.48;;;9.85;;
80225;SDS011;69538;42.000;21.452;2023-07-02T01:08:03;17.08;;;8.55;;
80225;SDS011;69538;42.000;21.452;2023-07-02T01:10:29;23.73;;;9.68;;
80225;SDS011;69538;42.000;21.452;2023-07-02T01:12:57;21.00;;;9.35;;
80225;SDS011;69538;42.000;21.452;2023-07-02T01:15:23;24.70;;;10.35;;
80225;SDS011;69538;42.000;21.452;2023-07-02T01:17:49;21.30;;;9.48;;
80225;SDS011;69538;42.000;21.452;2023-07-02T01:20:17;18.98;;;10.45;;
80225;SDS011;69538;42.000;21.452;2023-07-02T01:22:45;16.60;;;9.40;;
80225;SDS011;69538;42.000;21.452;2023-07-02T01:25:12;19.17;;;9.50;;
80225;SDS011;69538;42.000;21.452;2023-07-02T01:27:40;16.45;;;8.90;;
80225;SDS011;69538;42.000;21.452;2023-07-02T01:30:06;14.88;;;8.60;;
80225;SDS011;69538;42.000;21.452;2023-07-02T01:32:33;17.13;;;8.43;;
80225;SDS011;69538;42.000;21.452;2023-07-02T01:35:00;17.02;;;9.20;;
80225;SDS011;69538;42.000;21.452;2023-07-02T01:37:26;15.23;;;7.88;;
80225;SDS011;69538;42.000;21.452;2023-07-02T01:39:52;18.92;;;8.35;;
80225;SDS011;69538;42.000;21.452;2023-07-02T01:42:18;15.52;;;8.00;;
80225;SDS011;69538;42.000;21.452;2023-07-02T01:44:45;15.07;;;8.23;;
80225;SDS011;69538;42.000;21.452;2023-07-02T01:47:12;25.95;;;8.68;;
80225;SDS011;69538;42.000;21.452;2023-07-02T01:49:39;19.98;;;8.77;;
80225;SDS011;69538;42.000;21.452;2023-07-02T01:52:05;18.27;;;8.30;;
80225;SDS011;69538;42.000;21.452;2023-07-02T01:54:32;22.88;;;8.90;;
80225;SDS011;69538;42.000;21.452;2023-07-02T01:56:58;22.75;;;10.80;;
80225;SDS011;69538;42.000;21.452;2023-07-02T01:59:25;20.45;;;10.10;;
80225;SDS011;69538;42.000;21.452;2023-07-02T02:01:51;18.55;;;8.93;;
80225;SDS011;69538;42.000;21.452;2023-07-02T02:04:18;20.33;;;10.48;;
80225;SDS011;69538;42.000;21.452;2023-07-02T02:06:44;20.80;;;9.98;;
80225;SDS011;69538;42.000;21.452;2023-07-02T02:09:10;22.80;;;11.07;;
80225;SDS011;69538;42.000;21.452;2023-07-02T02:11:40;24.25;;;12.02;;
80225;SDS011;69538;42.000;21.452;2023-07-02T02:14:06;21.65;;;10.27;;
80225;SDS011;69538;42.000;21.452;2023-07-02T02:16:33;20.35;;;9.88;;
80225;SDS011;69538;42.000;21.452;2023-07-02T02:18:59;21.42;;;10.98;;
80225;SDS011;69538;42.000;21.452;2023-07-02T02:21:26;17.63;;;10.73;;
80225;SDS011;69538;42.000;21.452;2023-07-02T02:23:52;24.45;;;10.57;;
80225;SDS011;69538;42.000;21.452;2023-07-02T02:26:18;17.20;;;10.93;;
80225;SDS011;69538;42.000;21.452;2023-07-02T02:28:46;20.98;;;10.40;;
80225;SDS011;69538;42.000;21.452;2023-07-02T02:31:13;22.88;;;11.27;;
80225;SDS011;69538;42.000;21.452;2023-07-02T02:33:40;20.05;;;10.20;;
80225;SDS011;69538;42.000;21.452;2023-07-02T02:36:06;18.10;;;10.23;;
80225;SDS011;69538;42.000;21.452;2023-07-02T02:38:32;19.42;;;10.60;;
80225;SDS011;69538;42.000;21.452;2023-07-02T02:40:59;22.15;;;9.98;;
80225;SDS011;69538;42.000;21.452;2023-07-02T02:43:26;23.67;;;10.38;;
80225;SDS011;69538;42.000;21.452;2023-07-02T02:45:52;18.58;;;10.45;;
80225;SDS011;69538;42.000;21.452;2023-07-02T02:48:19;24.40;;;11.85;;
80225;SDS011;69538;42.000;21.452;2023-07-02T02:53:13;21.42;;;11.32;;
80225;SDS011;69538;42.000;21.452;2023-07-02T02:55:39;19.65;;;11.25;;
80225;SDS011;69538;42.000;21.452;2023-07-02T02:58:05;21.58;;;11.55;;
80225;SDS011;69538;42.000;21.452;2023-07-02T03:00:31;28.10;;;14.32;;
80225;SDS011;69538;42.000;21.452;2023-07-02T03:03:00;23.88;;;12.35;;
80225;SDS011;69538;42.000;21.452;2023-07-02T03:05:27;25.85;;;13.50;;
80225;SDS011;69538;42.000;21.452;2023-07-02T03:07:54;26.20;;;13.43;;
80225;SDS011;69538;42.000;21.452;2023-07-02T03:10:20;28.33;;;13.98;;
80225;SDS011;69538;42.000;21.452;2023-07-02T03:12:47;23.35;;;13.15;;
80225;SDS011;69538;42.000;21.452;2023-07-02T03:15:13;25.42;;;13.90;;
80225;SDS011;69538;42.000;21.452;2023-07-02T03:17:39;25.20;;;12.88;;
80225;SDS011;69538;42.000;21.452;2023-07-02T03:20:06;27.58;;;13.80;;
80225;SDS011;69538;42.000;21.452;2023-07-02T03:22:35;27.13;;;13.07;;
80225;SDS011;69538;42.000;21.452;2023-07-02T03:25:01;26.48;;;13.43;;
80225;SDS011;69538;42.000;21.452;2023-07-02T03:27:28;25.77;;;13.20;;
80225;SDS011;69538;42.000;21.452;2023-07-02T03:29:54;23.83;;;13.43;;
80225;SDS011;69538;42.000;21.452;2023-07-02T03:32:20;26.80;;;13.05;;
80225;SDS011;69538;42.000;21.452;2023-07-02T03:34:47;28.15;;;13.30;;
80225;SDS011;69538;42.000;21.452;2023-07-02T03:37:13;30.17;;;13.75;;
80225;SDS011;69538;42.000;21.452;2023-07-02T03:39:39;28.80;;;13.48;;
80225;SDS011;69538;42.000;21.452;2023-07-02T03:42:05;23.80;;;13.05;;
80225;SDS011;69538;42.000;21.452;2023-07-02T03:44:31;25.25;;;12.75;;
80225;SDS011;69538;42.000;21.452;2023-07-02T03:46:57;23.35;;;12.00;;
80225;SDS011;69538;42.000;21.452;2023-07-02T03:49:24;21.42;;;12.15;;
80225;SDS011;69538;42.000;21.452;2023-07-02T03:51:50;24.83;;;13.00;;
80225;SDS011;69538;42.000;21.452;2023-07-02T03:54:16;22.92;;;12.40;;
80225;SDS011;69538;42.000;21.452;2023-07-02T03:56:43;25.85;;;13.23;;
80225;SDS011;69538;42.000;21.452;2023-07-02T03:59:09;29.63;;;14.75;;
80225;SDS011;69538;42.000;21.452;2023-07-02T04:01:35;32.88;;;14.43;;
80225;SDS011;69538;42.000;21.452;2023-07-02T04:04:01;29.80;;;14.65;;
80225;SDS011;69538;42.000;21.452;2023-07-02T04:06:27;23.15;;;12.95;;
80225;SDS011;69538;42.000;21.452;2023-07-02T04:08:53;25.63;;;13.23;;
80225;SDS011;69538;42.000;21.452;2023-07-02T04:11:19;26.73;;;12.65;;
80225;SDS011;69538;42.000;21.452;2023-07-02T04:13:46;24.88;;;13.90;;
80225;SDS011;69538;42.000;21.452;2023-07-02T04:16:12;22.92;;;12.90;;
80225;SDS011;69538;42.000;21.452;2023-07-02T04:18:38;25.50;;;14.05;;
80225;SDS011;69538;42.000;21.452;2023-07-02T04:21:04;24.92;;;14.23;;
80225;SDS011;69538;42.000;21.452;2023-07-02T04:23:31;23.85;;;13.77;;
80225;SDS011;69538;42.000;21.452;2023-07-02T04:25:57;30.38;;;15.32;;
80225;SDS011;69538;42.000;21.452;2023-07-02T04:28:23;27.52;;;14.70;;
80225;SDS011;69538;42.000;21.452;2023-07-02T04:30:49;31.80;;;14.80;;
80225;SDS011;69538;42.000;21.452;2023-07-02T04:33:17;29.48;;;15.93;;
80225;SDS011;69538;42.000;21.452;2023-07-02T04:35:43;31.92;;;14.60;;
80225;SDS011;69538;42.000;21.452;2023-07-02T04:38:09;32.55;;;15.15;;
80225;SDS011;69538;42.000;21.452;2023-07-02T04:40:35;29.17;;;13.38;;
80225;SDS011;69538;42.000;21.452;2023-07-02T04:43:01;29.15;;;13.88;;
80225;SDS011;69538;42.000;21.452;2023-07-02T04:45:29;25.65;;;13.80;;
80225;SDS011;69538;42.000;21.452;2023-07-02T04:50:25;25.42;;;13.75;;
80225;SDS011;69538;42.000;21.452;2023-07-02T04:52:52;23.42;;;11.35;;
80225;SDS011;69538;42.000;21.452;2023-07-02T04:55:18;21.65;;;12.15;;
80225;SDS011;69538;42.000;21.452;2023-07-02T04:57:44;25.65;;;13.38;;
80225;SDS011;69538;42.000;21.452;2023-07-02T05:00:10;21.73;;;11.65;;
80225;SDS011;69538;42.000;21.452;2023-07-02T05:02:37;21.77;;;10.82;;
80225;SDS011;69538;42.000;21.452;2023-07-02T05:05:04;16.23;;;9.57;;
80225;SDS011;69538;42.000;21.452;2023-07-02T05:07:30;19.55;;;9.60;;
80225;SDS011;69538;42.000;21.452;2023-07-02T05:09:56;20.67;;;10.38;;
80225;SDS011;69538;42.000;21.452;2023-07-02T05:12:22;19.50;;;10.80;;
80225;SDS011;69538;42.000;21.452;2023-07-02T05:14:49;19.10;;;10.55;;
80225;SDS011;69538;42.000;21.452;2023-07-02T05:17:15;20.33;;;10.70;;
80225;SDS011;69538;42.000;21.452;2023-07-02T05:19:42;20.98;;;11.30;;
80225;SDS011;69538;42.000;21.452;2023-07-02T05:22:08;20.00;;;10.73;;
80225;SDS011;69538;42.000;21.452;2023-07-02T05:24:35;19.98;;;10.43;;
80225;SDS011;69538;42.000;21.452;2023-07-02T05:27:01;20.38;;;10.55;;
80225;SDS011;69538;42.000;21.452;2023-07-02T05:29:27;20.65;;;9.88;;
80225;SDS011;69538;42.000;21.452;2023-07-02T05:31:54;20.60;;;10.25;;
80225;SDS011;69538;42.000;21.452;2023-07-02T05:34:20;19.35;;;10.30;;
80225;SDS011;69538;42.000;21.452;2023-07-02T05:36:46;18.77;;;11.32;;
80225;SDS011;69538;42.000;21.452;2023-07-02T05:39:13;18.42;;;10.70;;
80225;SDS011;69538;42.000;21.452;2023-07-02T05:41:39;17.77;;;9.32;;
80225;SDS011;69538;42.000;21.452;2023-07-02T05:44:05;20.05;;;10.68;;
80225;SDS011;69538;42.000;21.452;2023-07-02T05:46:31;19.33;;;10.68;;
80225;SDS011;69538;42.000;21.452;2023-07-02T05:48:57;18.30;;;9.65;;
80225;SDS011;69538;42.000;21.452;2023-07-02T05:51:25;18.58;;;10.43;;
80225;SDS011;69538;42.000;21.452;2023-07-02T05:53:51;16.25;;;10.23;;
80225;SDS011;69538;42.000;21.452;2023-07-02T05:56:18;20.92;;;10.68;;
80225;SDS011;69538;42.000;21.452;2023-07-02T05:58:45;17.60;;;10.70;;
80225;SDS011;69538;42.000;21.452;2023-07-02T06:01:11;21.00;;;11.15;;
80225;SDS011;69538;42.000;21.452;2023-07-02T06:03:37;18.77;;;8.85;;
80225;SDS011;69538;42.000;21.452;2023-07-02T06:06:04;16.27;;;10.00;;
80225;SDS011;69538;42.000;21.452;2023-07-02T06:08:30;19.92;;;9.77;;
80225;SDS011;69538;42.000;21.452;2023-07-02T06:10:56;19.67;;;9.82;;
80225;SDS011;69538;42.000;21.452;2023-07-02T06:13:22;16.52;;;8.80;;
80225;SDS011;69538;42.000;21.452;2023-07-02T06:15:49;16.15;;;8.82;;
80225;SDS011;69538;42.000;21.452;2023-07-02T06:18:15;18.27;;;9.68;;
80225;SDS011;69538;42.000;21.452;2023-07-02T06:20:42;21.20;;;10.25;;
80225;SDS011;69538;42.000;21.452;2023-07-02T06:23:08;17.55;;;9.38;;
80225;SDS011;69538;42.000;21.452;2023-07-02T06:25:34;23.65;;;10.32;;
80225;SDS011;69538;42.000;21.452;2023-07-02T06:28:01;17.65;;;8.07;;
80225;SDS011;69538;42.000;21.452;2023-07-02T06:30:27;21.13;;;10.07;;
80225;SDS011;69538;42.000;21.452;2023-07-02T06:32:53;16.80;;;9.63;;
80225;SDS011;69538;42.000;21.452;2023-07-02T06:35:19;16.40;;;8.63;;
80225;SDS011;69538;42.000;21.452;2023-07-02T06:37:46;17.45;;;9.63;;
80225;SDS011;69538;42.000;21.452;2023-07-02T06:40:12;17.02;;;9.55;;
80225;SDS011;69538;42.000;21.452;2023-07-02T06:42:39;18.45;;;8.98;;
80225;SDS011;69538;42.000;21.452;2023-07-02T06:45:06;12.57;;;7.93;;
80225;SDS011;69538;42.000;21.452;2023-07-02T06:47:32;13.02;;;7.70;;
80225;SDS011;69538;42.000;21.452;2023-07-02T06:49:58;17.85;;;8.20;;
80225;SDS011;69538;42.000;21.452;2023-07-02T06:52:24;16.73;;;8.20;;
80225;SDS011;69538;42.000;21.452;2023-07-02T06:54:51;11.68;;;6.65;;
80225;SDS011;69538;42.000;21.452;2023-07-02T06:57:17;13.93;;;5.82;;
80225;SDS011;69538;42.000;21.452;2023-07-02T06:59:43;11.95;;;6.13;;
80225;SDS011;69538;42.000;21.452;2023-07-02T07:02:09;10.85;;;5.05;;
80225;SDS011;69538;42.000;21.452;2023-07-02T07:04:35;8.30;;;5.07;;
80225;SDS011;69538;42.000;21.452;2023-07-02T07:07:01;11.95;;;5.72;;
80225;SDS011;69538;42.000;21.452;2023-07-02T07:09:28;13.45;;;5.88;;
80225;SDS011;69538;42.000;21.452;2023-07-02T07:11:54;13.27;;;5.28;;
80225;SDS011;69538;42.000;21.452;2023-07-02T07:14:20;11.02;;;6.00;;
80225;SDS011;69538;42.000;21.452;2023-07-02T07:16:46;9.65;;;5.88;;
80225;SDS011;69538;42.000;21.452;2023-07-02T07:19:13;11.60;;;5.70;;
80225;SDS011;69538;42.000;21.452;2023-07-02T07:21:39;14.05;;;5.78;;
80225;SDS011;69538;42.000;21.452;2023-07-02T07:24:05;11.35;;;6.20;;
80225;SDS011;69538;42.000;21.452;2023-07-02T07:26:31;11.45;;;5.68;;
80225;SDS011;69538;42.000;21.452;2023-07-02T07:28:58;11.77;;;6.03;;
80225;SDS011;69538;42.000;21.452;2023-07-02T07:31:25;12.82;;;6.00;;
80225;SDS011;69538;42.000;21.452;2023-07-02T07:33:51;10.00;;;5.45;;
80225;SDS011;69538;42.000;21.452;2023-07-02T07:36:17;9.63;;;4.65;;
80225;SDS011;69538;42.000;21.452;2023-07-02T07:38:44;14.23;;;6.35;;
80225;SDS011;69538;42.000;21.452;2023-07-02T07:41:10;9.25;;;5.40;;
80225;SDS011;69538;42.000;21.452;2023-07-02T07:43:36;11.57;;;6.07;;
80225;SDS011;69538;42.000;21.452;2023-07-02T07:46:02;11.43;;;6.05;;
80225;SDS011;69538;42.000;21.452;2023-07-02T07:48:28;11.43;;;6.20;;
80225;SDS011;69538;42.000;21.452;2023-07-02T07:50:54;9.40;;;5.65;;
80225;SDS011;69538;42.000;21.452;2023-07-02T07:53:21;11.73;;;5.55;;
80225;SDS011;69538;42.000;21.452;2023-07-02T07:55:47;9.65;;;5.15;;
80225;SDS011;69538;42.000;21.452;2023-07-02T07:58:13;10.80;;;5.53;;
80225;SDS011;69538;42.000;21.452;2023-07-02T08:00:39;9.65;;;5.20;;
80225;SDS011;69538;42.000;21.452;2023-07-02T08:03:05;8.93;;;4.82;;
80225;SDS011;69538;42.000;21.452;2023-07-02T08:05:32;10.75;;;4.40;;
80225;SDS011;69538;42.000;21.452;2023-07-02T08:07:58;11.05;;;5.97;;
80225;SDS011;69538;42.000;21.452;2023-07-02T08:10:24;10.35;;;5.45;;
80225;SDS011;69538;42.000;21.452;2023-07-02T08:12:51;11.30;;;5.30;;
80225;SDS011;69538;42.000;21.452;2023-07-02T08:15:20;10.80;;;5.35;;
80225;SDS011;69538;42.000;21.452;2023-07-02T08:17:46;9.43;;;5.07;;
80225;SDS011;69538;42.000;21.452;2023-07-02T08:20:12;8.88;;;4.75;;
80225;SDS011;69538;42.000;21.452;2023-07-02T08:22:39;8.48;;;4.53;;
80225;SDS011;69538;42.000;21.452;2023-07-02T08:25:05;8.73;;;4.82;;
80225;SDS011;69538;42.000;21.452;2023-07-02T08:27:32;8.35;;;4.85;;
80225;SDS011;69538;42.000;21.452;2023-07-02T08:29:58;11.45;;;4.85;;
80225;SDS011;69538;42.000;21.452;2023-07-02T08:32:24;8.40;;;4.88;;
80225;SDS011;69538;42.000;21.452;2023-07-02T08:34:51;7.55;;;4.38;;
80225;SDS011;69538;42.000;21.452;2023-07-02T08:37:17;7.60;;;4.35;;
80225;SDS011;69538;42.000;21.452;2023-07-02T08:39:43;7.35;;;3.78;;
80225;SDS011;69538;42.000;21.452;2023-07-02T08:42:10;8.38;;;4.47;;
80225;SDS011;69538;42.000;21.452;2023-07-02T08:44:36;13.10;;;4.45;;
80225;SDS011;69538;42.000;21.452;2023-07-02T08:47:03;6.95;;;3.78;;
80225;SDS011;69538;42.000;21.452;2023-07-02T08:49:29;9.85;;;4.78;;
80225;SDS011;69538;42.000;21.452;2023-07-02T08:51:55;7.07;;;3.40;;
80225;SDS011;69538;42.000;21.452;2023-07-02T08:54:21;7.22;;;3.88;;
80225;SDS011;69538;42.000;21.452;2023-07-02T08:56:48;6.68;;;3.55;;
80225;SDS011;69538;42.000;21.452;2023-07-02T08:59:14;7.18;;;3.78;;
80225;SDS011;69538;42.000;21.452;2023-07-02T09:01:50;6.65;;;3.33;;
80225;SDS011;69538;42.000;21.452;2023-07-02T09:06:43;7.93;;;4.47;;
80225;SDS011;69538;42.000;21.452;2023-07-02T09:09:09;7.43;;;3.55;;
80225;SDS011;69538;42.000;21.452;2023-07-02T09:11:35;7.18;;;3.40;;
80225;SDS011;69538;42.000;21.452;2023-07-02T09:14:22;6.20;;;3.45;;
80225;SDS011;69538;42.000;21.452;2023-07-02T09:16:49;5.53;;;2.90;;
80225;SDS011;69538;42.000;21.452;2023-07-02T09:19:15;7.63;;;3.92;;
80225;SDS011;69538;42.000;21.452;2023-07-02T09:21:43;8.20;;;4.15;;
80225;SDS011;69538;42.000;21.452;2023-07-02T09:24:20;8.88;;;3.60;;
80225;SDS011;69538;42.000;21.452;2023-07-02T09:26:51;5.93;;;3.38;;
80225;SDS011;69538;42.000;21.452;2023-07-02T09:29:25;6.78;;;3.65;;
80225;SDS011;69538;42.000;21.452;2023-07-02T09:31:57;8.77;;;3.60;;
80225;SDS011;69538;42.000;21.452;2023-07-02T09:34:28;7.47;;;3.92;;
80225;SDS011;69538;42.000;21.452;2023-07-02T09:36:54;6.47;;;3.60;;
80225;SDS011;69538;42.000;21.452;2023-07-02T09:39:25;7.43;;;3.97;;
80225;SDS011;69538;42.000;21.452;2023-07-02T09:41:52;6.50;;;3.90;;
80225;SDS011;69538;42.000;21.452;2023-07-02T09:44:20;7.65;;;3.92;;
80225;SDS011;69538;42.000;21.452;2023-07-02T09:46:49;9.02;;;3.70;;
80225;SDS011;69538;42.000;21.452;2023-07-02T09:49:20;7.03;;;3.88;;
80225;SDS011;69538;42.000;21.452;2023-07-02T09:51:47;6.40;;;3.67;;
80225;SDS011;69538;42.000;21.452;2023-07-02T09:54:13;7.30;;;4.00;;
80225;SDS011;69538;42.000;21.452;2023-07-02T09:56:40;13.52;;;4.13;;
80225;SDS011;69538;42.000;21.452;2023-07-02T09:59:06;8.00;;;3.72;;
80225;SDS011;69538;42.000;21.452;2023-07-02T10:01:32;8.05;;;3.53;;
80225;SDS011;69538;42.000;21.452;2023-07-02T10:04:09;7.43;;;3.97;;
80225;SDS011;69538;42.000;21.452;2023-07-02T10:06:48;7.00;;;3.80;;
80225;SDS011;69538;42.000;21.452;2023-07-02T10:09:18;6.60;;;4.10;;
80225;SDS011;69538;42.000;21.452;2023-07-02T10:11:44;6.55;;;3.92;;
80225;SDS011;69538;42.000;21.452;2023-07-02T10:14:11;7.35;;;3.33;;
80225;SDS011;69538;42.000;21.452;2023-07-02T10:16:49;7.80;;;4.07;;
80225;SDS011;69538;42.000;21.452;2023-07-02T10:19:16;7.95;;;4.05;;
80225;SDS011;69538;42.000;21.452;2023-07-02T10:21:43;6.68;;;3.40;;
80225;SDS011;69538;42.000;21.452;2023-07-02T10:24:16;6.82;;;3.50;;
80225;SDS011;69538;42.000;21.452;2023-07-02T10:26:53;6.57;;;3.88;;
80225;SDS011;69538;42.000;21.452;2023-07-02T10:29:20;7.00;;;4.35;;
80225;SDS011;69538;42.000;21.452;2023-07-02T10:31:50;7.38;;;4.10;;
80225;SDS011;69538;42.000;21.452;2023-07-02T10:34:16;6.90;;;4.10;;
80225;SDS011;69538;42.000;21.452;2023-07-02T10:36:54;7.80;;;4.57;;
80225;SDS011;69538;42.000;21.452;2023-07-02T10:39:20;6.95;;;3.88;;
80225;SDS011;69538;42.000;21.452;2023-07-02T10:41:46;6.47;;;4.03;;
80225;SDS011;69538;42.000;21.452;2023-07-02T10:44:13;7.57;;;4.22;;
80225;SDS011;69538;42.000;21.452;2023-07-02T10:46:45;6.78;;;4.10;;
80225;SDS011;69538;42.000;21.452;2023-07-02T10:49:12;7.25;;;4.07;;
80225;SDS011;69538;42.000;21.452;2023-07-02T10:51:38;7.00;;;4.00;;
80225;SDS011;69538;42.000;21.452;2023-07-02T10:54:04;8.25;;;4.20;;
80225;SDS011;69538;42.000;21.452;2023-07-02T10:56:31;7.60;;;4.55;;
80225;SDS011;69538;42.000;21.452;2023-07-02T10:58:58;9.27;;;4.32;;
80225;SDS011;69538;42.000;21.452;2023-07-02T11:01:28;6.82;;;4.05;;
80225;SDS011;69538;42.000;21.452;2023-07-02T11:04:01;6.43;;;4.03;;
80225;SDS011;69538;42.000;21.452;2023-07-02T11:06:28;6.97;;;4.40;;
80225;SDS011;69538;42.000;21.452;2023-07-02T11:08:54;10.55;;;4.40;;
80225;SDS011;69538;42.000;21.452;2023-07-02T11:11:20;7.90;;;4.28;;
80225;SDS011;69538;42.000;21.452;2023-07-02T11:13:48;7.38;;;3.95;;
80225;SDS011;69538;42.000;21.452;2023-07-02T11:16:18;6.68;;;4.60;;
80225;SDS011;69538;42.000;21.452;2023-07-02T11:18:45;6.30;;;3.92;;
80225;SDS011;69538;42.000;21.452;2023-07-02T11:21:11;7.95;;;4.65;;
80225;SDS011;69538;42.000;21.452;2023-07-02T11:23:37;7.30;;;4.45;;
80225;SDS011;69538;42.000;21.452;2023-07-02T11:26:04;6.32;;;3.92;;
80225;SDS011;69538;42.000;21.452;2023-07-02T11:28:30;6.18;;;3.53;;
80225;SDS011;69538;42.000;21.452;2023-07-02T11:30:57;11.43;;;4.55;;
80225;SDS011;69538;42.000;21.452;2023-07-02T11:33:34;7.13;;;4.35;;
80225;SDS011;69538;42.000;21.452;2023-07-02T11:36:00;8.25;;;4.63;;
80225;SDS011;69538;42.000;21.452;2023-07-02T11:38:26;6.55;;;4.00;;
80225;SDS011;69538;42.000;21.452;2023-07-02T11:40:52;7.50;;;4.93;;
80225;SDS011;69538;42.000;21.452;2023-07-02T11:43:18;6.93;;;4.40;;
80225;SDS011;69538;42.000;21.452;2023-07-02T11:45:44;7.82;;;4.45;;
80225;SDS011;69538;42.000;21.452;2023-07-02T11:48:10;9.75;;;5.05;;
80225;SDS011;69538;42.000;21.452;2023-07-02T11:50:37;7.40;;;3.50;;
80225;SDS011;69538;42.000;21.452;2023-07-02T11:53:04;8.40;;;4.65;;
80225;SDS011;69538;42.000;21.452;2023-07-02T11:55:30;8.07;;;4.40;;
80225;SDS011;69538;42.000;21.452;2023-07-02T11:57:56;7.80;;;4.80;;
80225;SDS011;69538;42.000;21.452;2023-07-02T12:00:22;8.68;;;5.63;;
80225;SDS011;69538;42.000;21.452;2023-07-02T12:02:48;8.57;;;4.95;;
80225;SDS011;69538;42.000;21.452;2023-07-02T12:05:15;10.60;;;5.32;;
80225;SDS011;69538;42.000;21.452;2023-07-02T12:07:41;7.35;;;4.40;;
80225;SDS011;69538;42.000;21.452;2023-07-02T12:10:07;8.55;;;4.90;;
80225;SDS011;69538;42.000;21.452;2023-07-02T12:12:33;9.15;;;4.90;;
80225;SDS011;69538;42.000;21.452;2023-07-02T12:15:00;9.27;;;5.45;;
80225;SDS011;69538;42.000;21.452;2023-07-02T12:17:26;9.57;;;5.55;;
80225;SDS011;69538;42.000;21.452;2023-07-02T12:19:52;9.68;;;5.53;;
80225;SDS011;69538;42.000;21.452;2023-07-02T12:22:18;6.85;;;4.82;;
80225;SDS011;69538;42.000;21.452;2023-07-02T12:24:47;8.20;;;4.68;;
80225;SDS011;69538;42.000;21.452;2023-07-02T12:27:15;8.68;;;5.13;;
80225;SDS011;69538;42.000;21.452;2023-07-02T12:29:41;8.38;;;5.13;;
80225;SDS011;69538;42.000;21.452;2023-07-02T12:32:08;8.73;;;5.38;;
80225;SDS011;69538;42.000;21.452;2023-07-02T12:34:34;8.95;;;5.10;;
80225;SDS011;69538;42.000;21.452;2023-07-02T12:37:00;8.55;;;5.22;;
80225;SDS011;69538;42.000;21.452;2023-07-02T12:39:26;6.82;;;4.93;;
80225;SDS011;69538;42.000;21.452;2023-07-02T12:41:52;7.38;;;5.18;;
80225;SDS011;69538;42.000;21.452;2023-07-02T12:44:18;8.05;;;5.20;;
80225;SDS011;69538;42.000;21.452;2023-07-02T12:46:45;7.68;;;4.60;;
80225;SDS011;69538;42.000;21.452;2023-07-02T12:49:12;8.52;;;5.10;;
80225;SDS011;69538;42.000;21.452;2023-07-02T12:51:38;6.90;;;4.88;;
80225;SDS011;69538;42.000;21.452;2023-07-02T12:54:04;9.05;;;5.53;;
80225;SDS011;69538;42.000;21.452;2023-07-02T12:56:30;7.70;;;4.95;;
80225;SDS011;69538;42.000;21.452;2023-07-02T12:58:56;9.25;;;5.38;;
80225;SDS011;69538;42.000;21.452;2023-07-02T13:01:22;9.00;;;5.55;;
80225;SDS011;69538;42.000;21.452;2023-07-02T13:03:49;9.60;;;5.32;;
80225;SDS011;69538;42.000;21.452;2023-07-02T13:06:15;8.75;;;5.13;;
80225;SDS011;69538;42.000;21.452;2023-07-02T13:08:42;8.60;;;6.30;;
80225;SDS011;69538;42.000;21.452;2023-07-02T13:11:08;6.80;;;4.60;;
80225;SDS011;69538;42.000;21.452;2023-07-02T13:13:35;7.60;;;5.35;;
80225;SDS011;69538;42.000;21.452;2023-07-02T13:16:01;8.65;;;5.68;;
80225;SDS011;69538;42.000;21.452;2023-07-02T13:18:27;8.20;;;5.20;;
80225;SDS011;69538;42.000;21.452;2023-07-02T13:20:53;8.38;;;5.70;;
80225;SDS011;69538;42.000;21.452;2023-07-02T13:23:20;8.27;;;5.57;;
80225;SDS011;69538;42.000;21.452;2023-07-02T13:25:46;8.10;;;5.38;;
80225;SDS011;69538;42.000;21.452;2023-07-02T13:28:12;7.43;;;5.28;;
80225;SDS011;69538;42.000;21.452;2023-07-02T13:30:38;9.95;;;5.70;;
80225;SDS011;69538;42.000;21.452;2023-07-02T13:33:04;7.10;;;5.15;;
80225;SDS011;69538;42.000;21.452;2023-07-02T13:35:30;9.23;;;5.45;;
80225;SDS011;69538;42.000;21.452;2023-07-02T13:37:57;8.25;;;5.43;;
80225;SDS011;69538;42.000;21.452;2023-07-02T13:40:24;9.73;;;5.75;;
80225;SDS011;69538;42.000;21.452;2023-07-02T13:42:51;10.70;;;5.80;;
80225;SDS011;69538;42.000;21.452;2023-07-02T13:45:17;10.43;;;5.40;;
80225;SDS011;69538;42.000;21.452;2023-07-02T13:47:43;9.52;;;5.60;;
80225;SDS011;69538;42.000;21.452;2023-07-02T13:50:10;8.65;;;5.75;;
80225;SDS011;69538;42.000;21.452;2023-07-02T13:52:36;8.90;;;5.60;;
80225;SDS011;69538;42.000;21.452;2023-07-02T13:55:03;9.02;;;5.38;;
80225;SDS011;69538;42.000;21.452;2023-07-02T13:57:29;10.68;;;5.85;;
80225;SDS011;69538;42.000;21.452;2023-07-02T13:59:55;14.02;;;6.28;;
80225;SDS011;69538;42.000;21.452;2023-07-02T14:02:22;9.63;;;5.40;;
80225;SDS011;69538;42.000;21.452;2023-07-02T14:04:48;9.98;;;6.68;;
80225;SDS011;69538;42.000;21.452;2023-07-02T14:07:15;9.98;;;6.50;;
80225;SDS011;69538;42.000;21.452;2023-07-02T14:09:41;11.70;;;6.50;;
80225;SDS011;69538;42.000;21.452;2023-07-02T14:12:07;8.32;;;5.63;;
80225;SDS011;69538;42.000;21.452;2023-07-02T14:14:33;10.63;;;4.90;;
80225;SDS011;69538;42.000;21.452;2023-07-02T14:17:00;10.68;;;5.70;;
80225;SDS011;69538;42.000;21.452;2023-07-02T14:19:26;10.93;;;6.60;;
80225;SDS011;69538;42.000;21.452;2023-07-02T14:21:52;8.50;;;4.55;;
80225;SDS011;69538;42.000;21.452;2023-07-02T14:24:18;10.30;;;5.93;;
80225;SDS011;69538;42.000;21.452;2023-07-02T14:26:44;8.02;;;5.05;;
80225;SDS011;69538;42.000;21.452;2023-07-02T14:29:10;9.15;;;5.72;;